createdAt,value
2023-05-24T00:01:57.183Z,100.00
2023-05-24T00:04:25.176Z,100.00
2023-05-24T00:06:54.762Z,100.00
2023-05-24T00:09:21.680Z,100.00
2023-05-24T00:11:49.147Z,100.00
2023-05-24T00:14:16.192Z,100.00
2023-05-24T00:16:42.727Z,100.00
2023-05-24T00:19:11.358Z,100.00
2023-05-24T00:21:38.350Z,100.00
2023-05-24T00:24:04.953Z,100.00
2023-05-24T00:26:31.399Z,100.00
2023-05-24T00:28:57.827Z,100.00
2023-05-24T00:31:24.340Z,100.00
2023-05-24T00:33:50.820Z,100.00
2023-05-24T00:36:17.242Z,100.00
2023-05-24T00:38:43.663Z,100.00
2023-05-24T00:41:11.462Z,100.00
2023-05-24T00:43:38.127Z,100.00
2023-05-24T00:46:18.904Z,100.00
2023-05-24T00:48:45.867Z,100.00
2023-05-24T00:51:13.340Z,100.00
2023-05-24T00:53:41.322Z,100.00
2023-05-24T00:56:08.706Z,100.00
2023-05-24T00:58:35.413Z,100.00
2023-05-24T01:01:03.009Z,100.00
2023-05-24T01:03:29.875Z,100.00
2023-05-24T01:06:03.998Z,100.00
2023-05-24T01:08:42.802Z,100.00
2023-05-24T01:11:27.412Z,100.00
2023-05-24T01:14:26.918Z,100.00
2023-05-24T01:17:05.716Z,100.00
2023-05-24T01:20:00.023Z,100.00
2023-05-24T01:22:44.083Z,100.00
2023-05-24T01:25:41.875Z,100.00
2023-05-24T01:28:11.342Z,100.00
2023-05-24T01:30:41.624Z,100.00
2023-05-24T01:33:08.972Z,100.00
2023-05-24T01:35:40.197Z,100.00
2023-05-24T01:38:07.313Z,100.00
2023-05-24T01:40:34.673Z,100.00
2023-05-24T01:43:19.842Z,100.00
2023-05-24T01:46:17.290Z,100.00
2023-05-24T01:49:02.919Z,100.00
2023-05-24T01:51:38.658Z,100.00
2023-05-24T01:54:06.694Z,100.00
2023-05-24T01:56:34.450Z,100.00
2023-05-24T01:59:03.354Z,100.00
2023-05-24T02:01:31.977Z,100.00
2023-05-24T02:03:59.330Z,100.00
2023-05-24T02:06:25.787Z,100.00
2023-05-24T02:08:53.513Z,100.00
2023-05-24T02:11:19.992Z,100.00
2023-05-24T02:13:46.488Z,100.00
2023-05-24T02:16:13.483Z,100.00
2023-05-24T02:18:40.193Z,100.00
2023-05-24T02:21:06.742Z,100.00
2023-05-24T02:23:33.254Z,100.00
2023-05-24T02:25:59.748Z,100.00
2023-05-24T02:28:26.235Z,100.00
2023-05-24T02:30:52.697Z,100.00
2023-05-24T02:33:19.136Z,100.00
2023-05-24T02:35:45.601Z,100.00
2023-05-24T02:38:12.141Z,100.00
2023-05-24T02:40:38.610Z,100.00
2023-05-24T02:43:05.063Z,100.00
2023-05-24T02:45:31.514Z,100.00
2023-05-24T02:47:57.999Z,100.00
2023-05-24T02:50:24.689Z,100.00
2023-05-24T02:52:51.657Z,100.00
2023-05-24T02:55:18.261Z,100.00
2023-05-24T02:57:44.703Z,100.00
2023-05-24T03:00:11.886Z,100.00
2023-05-24T03:02:38.581Z,100.00
2023-05-24T03:05:05.967Z,100.00
2023-05-24T03:07:32.492Z,100.00
2023-05-24T03:09:59.050Z,100.00
2023-05-24T03:12:25.549Z,100.00
2023-05-24T03:14:51.959Z,100.00
2023-05-24T03:17:18.491Z,100.00
2023-05-24T03:19:45.201Z,100.00
2023-05-24T03:22:11.668Z,100.00
2023-05-24T03:24:38.455Z,100.00
2023-05-24T03:27:06.044Z,100.00
2023-05-24T03:29:32.550Z,100.00
2023-05-24T03:31:59.193Z,100.00
2023-05-24T03:34:25.868Z,100.00
2023-05-24T03:36:52.313Z,100.00
2023-05-24T03:39:18.758Z,100.00
2023-05-24T03:41:45.223Z,100.00
2023-05-24T03:44:11.673Z,100.00
2023-05-24T03:46:38.280Z,100.00
2023-05-24T03:49:04.816Z,100.00
2023-05-24T03:51:31.351Z,100.00
2023-05-24T03:53:57.871Z,100.00
2023-05-24T03:56:26.594Z,100.00
2023-05-24T03:58:53.244Z,100.00
2023-05-24T04:01:32.607Z,100.00
2023-05-24T04:04:01.527Z,100.00
2023-05-24T04:06:31.315Z,100.00
2023-05-24T04:08:59.624Z,100.00
2023-05-24T04:11:28.489Z,100.00
2023-05-24T04:14:00.483Z,100.00
2023-05-24T04:16:27.505Z,100.00
2023-05-24T04:18:55.276Z,100.00
2023-05-24T04:21:22.719Z,100.00
2023-05-24T04:23:49.391Z,100.00
2023-05-24T04:26:16.106Z,100.00
2023-05-24T04:28:42.553Z,100.00
2023-05-24T04:31:10.048Z,100.00
2023-05-24T04:33:36.880Z,100.00
2023-05-24T04:36:03.463Z,100.00
2023-05-24T04:38:32.216Z,100.00
2023-05-24T04:40:59.442Z,100.00
2023-05-24T04:43:29.019Z,100.00
2023-05-24T04:45:55.875Z,100.00
2023-05-24T04:48:24.379Z,100.00
2023-05-24T04:50:52.432Z,100.00
2023-05-24T04:53:20.150Z,100.00
2023-05-24T04:55:47.343Z,100.00
2023-05-24T04:58:14.204Z,100.00
2023-05-24T05:00:40.837Z,100.00
2023-05-24T05:03:08.377Z,100.00
2023-05-24T05:05:34.895Z,100.00
2023-05-24T05:08:01.784Z,100.00
2023-05-24T05:10:28.224Z,100.00
2023-05-24T05:12:54.685Z,100.00
2023-05-24T05:15:23.222Z,100.00
2023-05-24T05:17:50.194Z,100.00
2023-05-24T05:20:16.921Z,100.00
2023-05-24T05:22:49.790Z,100.00
2023-05-24T05:25:16.496Z,100.00
2023-05-24T05:27:43.743Z,100.00
2023-05-24T05:30:10.906Z,100.00
2023-05-24T05:32:37.834Z,100.00
2023-05-24T05:35:05.145Z,100.00
2023-05-24T05:37:31.661Z,100.00
2023-05-24T05:39:58.172Z,100.00
2023-05-24T05:42:24.789Z,100.00
2023-05-24T05:44:52.509Z,100.00
2023-05-24T05:47:19.090Z,100.00
2023-05-24T05:49:45.569Z,100.00
2023-05-24T05:52:12.106Z,100.00
2023-05-24T05:54:38.588Z,100.00
2023-05-24T05:57:05.430Z,100.00
2023-05-24T05:59:35.864Z,100.00
2023-05-24T06:02:04.058Z,100.00
2023-05-24T06:04:30.633Z,100.00
2023-05-24T06:06:57.172Z,100.00
2023-05-24T06:09:23.611Z,100.00
2023-05-24T06:11:50.104Z,100.00
2023-05-24T06:14:21.257Z,100.00
2023-05-24T06:16:47.980Z,100.00
2023-05-24T06:19:15.361Z,100.00
2023-05-24T06:21:47.190Z,100.00
2023-05-24T06:24:15.186Z,100.00
2023-05-24T06:26:42.025Z,100.00
2023-05-24T06:29:09.515Z,100.00
2023-05-24T06:31:36.084Z,100.00
2023-05-24T06:34:04.283Z,100.00
2023-05-24T06:36:34.104Z,100.00
2023-05-24T06:39:01.345Z,100.00
2023-05-24T06:41:28.353Z,100.00
2023-05-24T06:43:55.101Z,100.00
2023-05-24T06:46:21.584Z,100.00
2023-05-24T06:48:48.060Z,100.00
2023-05-24T06:51:14.724Z,100.00
2023-05-24T06:53:41.614Z,100.00
2023-05-24T06:56:09.411Z,100.00
2023-05-24T06:58:36.623Z,100.00
2023-05-24T07:01:05.002Z,100.00
2023-05-24T07:03:34.737Z,100.00
2023-05-24T07:06:01.672Z,100.00
2023-05-24T07:08:28.165Z,100.00
2023-05-24T07:10:54.954Z,100.00
2023-05-24T07:13:21.543Z,100.00
2023-05-24T07:15:48.123Z,100.00
2023-05-24T07:18:14.880Z,100.00
2023-05-24T07:20:41.685Z,100.00
2023-05-24T07:23:08.554Z,100.00
2023-05-24T07:25:35.038Z,100.00
2023-05-24T07:28:01.564Z,100.00
2023-05-24T07:30:32.720Z,100.00
2023-05-24T07:33:02.552Z,100.00
2023-05-24T07:35:29.414Z,100.00
2023-05-24T07:37:56.442Z,100.00
2023-05-24T07:40:23.209Z,100.00
2023-05-24T07:42:50.022Z,100.00
2023-05-24T07:45:16.586Z,100.00
2023-05-24T07:47:43.106Z,100.00
2023-05-24T07:50:10.575Z,100.00
2023-05-24T07:52:38.725Z,100.00
2023-05-24T07:55:08.806Z,100.00
2023-05-24T07:57:35.266Z,100.00
2023-05-24T08:00:10.135Z,100.00
2023-05-24T08:02:36.754Z,100.00
2023-05-24T08:05:05.055Z,100.00
2023-05-24T08:07:31.503Z,100.00
2023-05-24T08:09:57.946Z,100.00
2023-05-24T08:12:25.913Z,100.00
2023-05-24T08:14:52.610Z,100.00
2023-05-24T08:17:19.338Z,100.00
2023-05-24T08:19:45.871Z,100.00
2023-05-24T08:22:12.738Z,100.00
2023-05-24T08:24:39.185Z,100.00
2023-05-24T08:27:05.658Z,100.00
2023-05-24T08:29:32.428Z,100.00
2023-05-24T08:31:59.903Z,100.00
2023-05-24T08:34:26.767Z,100.00
2023-05-24T08:36:53.736Z,100.00
2023-05-24T08:39:20.201Z,100.00
2023-05-24T08:41:57.338Z,100.00
2023-05-24T08:44:41.340Z,100.00
2023-05-24T08:47:09.183Z,100.00
2023-05-24T08:49:37.310Z,100.00
2023-05-24T08:52:07.445Z,100.00
2023-05-24T08:54:37.546Z,100.00
2023-05-24T08:57:04.634Z,100.00
2023-05-24T08:59:31.153Z,100.00
2023-05-24T09:01:58.035Z,100.00
2023-05-24T09:04:27.112Z,100.00
2023-05-24T09:06:54.851Z,100.00
2023-05-24T09:09:22.174Z,100.00
2023-05-24T09:11:51.804Z,100.00
2023-05-24T09:14:18.742Z,100.00
2023-05-24T09:16:45.729Z,100.00
2023-05-24T09:19:12.334Z,100.00
2023-05-24T09:21:38.963Z,100.00
2023-05-24T09:24:08.786Z,100.00
2023-05-24T09:26:36.635Z,100.00
2023-05-24T09:29:07.303Z,100.00
2023-05-24T09:31:35.137Z,100.00
2023-05-24T09:34:02.180Z,100.00
2023-05-24T09:36:33.508Z,100.00
2023-05-24T09:39:09.014Z,100.00
2023-05-24T09:41:38.871Z,100.00
2023-05-24T09:44:06.120Z,100.00
2023-05-24T09:46:38.267Z,100.00
2023-05-24T09:49:06.752Z,100.00
2023-05-24T09:51:38.237Z,100.00
2023-05-24T09:54:05.756Z,100.00
2023-05-24T09:56:33.673Z,100.00
2023-05-24T09:59:06.079Z,100.00
2023-05-24T10:01:33.937Z,100.00
2023-05-24T10:04:03.775Z,100.00
2023-05-24T10:06:36.997Z,100.00
2023-05-24T10:09:08.782Z,100.00
2023-05-24T10:11:39.984Z,100.00
2023-05-24T10:14:09.050Z,100.00
2023-05-24T10:16:38.388Z,100.00
2023-05-24T10:19:05.986Z,100.00
2023-05-24T10:21:34.052Z,100.00
2023-05-24T10:24:03.686Z,100.00
2023-05-24T10:26:33.085Z,99.97
2023-05-24T10:29:06.374Z,100.00
2023-05-24T10:31:35.555Z,97.60
2023-05-24T10:34:08.389Z,97.78
2023-05-24T10:36:37.073Z,96.42
2023-05-24T10:39:04.206Z,98.46
2023-05-24T10:41:39.749Z,98.01
2023-05-24T10:44:11.624Z,96.34
2023-05-24T10:47:11.092Z,98.07
2023-05-24T10:49:39.738Z,95.34
2023-05-24T10:52:10.294Z,95.03
2023-05-24T10:54:39.717Z,96.28
2023-05-24T10:57:08.400Z,96.78
2023-05-24T10:59:40.312Z,96.97
2023-05-24T11:02:16.471Z,97.31
2023-05-24T11:04:46.538Z,98.27
2023-05-24T11:07:17.069Z,97.09
2023-05-24T11:09:48.589Z,94.50
2023-05-24T11:12:17.840Z,97.94
2023-05-24T11:14:49.910Z,97.56
2023-05-24T11:17:18.900Z,97.10
2023-05-24T11:19:50.492Z,97.05
2023-05-24T11:22:25.809Z,96.76
2023-05-24T11:24:53.752Z,97.30
2023-05-24T11:27:20.394Z,97.65
2023-05-24T11:29:52.931Z,94.66
2023-05-24T11:32:21.331Z,95.92
2023-05-24T11:34:48.862Z,94.54
2023-05-24T11:37:17.898Z,96.04
2023-05-24T11:39:50.388Z,95.20
2023-05-24T11:42:17.404Z,93.63
2023-05-24T11:44:43.972Z,90.81
2023-05-24T11:47:11.916Z,92.07
2023-05-24T11:49:38.361Z,90.67
2023-05-24T11:52:05.203Z,92.61
2023-05-24T11:54:34.965Z,89.18
2023-05-24T11:57:02.178Z,92.33
2023-05-24T11:59:29.435Z,92.83
2023-05-24T12:02:08.765Z,92.35
2023-05-24T12:04:37.951Z,93.38
2023-05-24T12:07:11.033Z,92.23
2023-05-24T12:09:37.748Z,90.47
2023-05-24T12:12:04.520Z,92.18
2023-05-24T12:14:33.713Z,92.29
2023-05-24T12:17:03.742Z,95.08
2023-05-24T12:19:37.278Z,93.78
2023-05-24T12:22:06.375Z,92.76
2023-05-24T12:24:33.547Z,90.46
2023-05-24T12:27:02.063Z,90.74
2023-05-24T12:29:41.765Z,91.63
2023-05-24T12:32:14.751Z,91.19
2023-05-24T12:34:43.557Z,92.71
2023-05-24T12:37:12.267Z,92.62
2023-05-24T12:39:39.754Z,93.52
2023-05-24T12:42:06.508Z,93.50
2023-05-24T12:44:45.472Z,94.26
2023-05-24T12:47:12.130Z,94.18
2023-05-24T12:49:38.710Z,95.08
2023-05-24T12:52:06.866Z,95.54
2023-05-24T12:54:33.568Z,95.87
2023-05-24T12:57:02.586Z,92.32
2023-05-24T12:59:29.626Z,93.08
2023-05-24T13:01:56.703Z,92.48
2023-05-24T13:04:26.109Z,91.78
2023-05-24T13:06:52.888Z,89.93
2023-05-24T13:09:21.577Z,90.52
2023-05-24T13:11:48.297Z,91.00
2023-05-24T13:14:16.624Z,89.88
2023-05-24T13:16:44.393Z,90.96
2023-05-24T13:19:12.042Z,91.69
2023-05-24T13:21:39.061Z,91.01
2023-05-24T13:24:07.575Z,89.04
2023-05-24T13:26:38.194Z,88.97
2023-05-24T13:31:37.408Z,88.73
2023-05-24T13:34:04.490Z,89.74
2023-05-24T13:36:31.010Z,90.06
2023-05-24T13:39:13.260Z,88.02
2023-05-24T13:41:42.991Z,89.66
2023-05-24T13:44:10.010Z,89.61
2023-05-24T13:46:37.088Z,89.24
2023-05-24T13:49:04.364Z,88.38
2023-05-24T13:51:30.890Z,88.14
2023-05-24T13:53:57.538Z,88.49
2023-05-24T13:56:24.978Z,87.73
2023-05-24T13:58:52.805Z,87.08
2023-05-24T14:01:19.533Z,86.44
2023-05-24T14:03:46.253Z,85.51
2023-05-24T14:06:12.861Z,84.79
2023-05-24T14:08:39.496Z,84.50
2023-05-24T14:11:06.385Z,85.60
2023-05-24T14:14:23.394Z,86.40
2023-05-24T14:16:19.481Z,84.83
2023-05-24T14:18:48.947Z,85.00
2023-05-24T14:21:15.740Z,85.24
2023-05-24T14:23:42.292Z,85.18
2023-05-24T14:26:08.826Z,86.03
2023-05-24T14:28:35.425Z,85.85
2023-05-24T14:31:02.525Z,85.09
2023-05-24T14:33:29.059Z,86.26
2023-05-24T14:35:55.632Z,85.76
2023-05-24T14:38:23.889Z,85.40
2023-05-24T14:40:51.217Z,85.76
2023-05-24T14:43:17.915Z,84.54
2023-05-24T14:45:44.687Z,84.59
2023-05-24T14:48:12.451Z,84.66
2023-05-24T14:50:40.328Z,85.49
2023-05-24T14:53:12.175Z,85.82
2023-05-24T14:55:43.103Z,83.39
2023-05-24T14:58:13.612Z,83.41
2023-05-24T15:00:41.730Z,83.66
2023-05-24T15:03:09.031Z,84.51
2023-05-24T15:05:36.393Z,83.50
2023-05-24T15:08:03.253Z,83.48
2023-05-24T15:10:29.835Z,82.17
2023-05-24T15:12:56.337Z,84.20
2023-05-24T15:15:22.880Z,83.01
2023-05-24T15:17:49.853Z,83.45
2023-05-24T15:20:16.599Z,83.35
2023-05-24T15:22:43.286Z,83.04
2023-05-24T15:25:10.681Z,84.29
2023-05-24T15:27:37.206Z,84.29
2023-05-24T15:30:04.647Z,84.25
2023-05-24T15:32:31.748Z,83.70
2023-05-24T15:35:00.189Z,84.54
2023-05-24T15:37:27.234Z,84.04
2023-05-24T15:39:54.419Z,83.82
2023-05-24T15:42:21.860Z,83.84
2023-05-24T15:44:48.335Z,84.06
2023-05-24T15:47:14.834Z,83.17
2023-05-24T15:49:41.464Z,82.82
2023-05-24T15:52:08.723Z,83.55
2023-05-24T15:54:35.565Z,83.66
2023-05-24T15:57:02.619Z,82.88
2023-05-24T15:59:29.368Z,83.70
2023-05-24T16:01:56.834Z,89.94
2023-05-24T16:04:23.687Z,87.97
2023-05-24T16:06:50.304Z,96.76
2023-05-24T16:09:16.852Z,96.97
2023-05-24T16:11:43.394Z,88.63
2023-05-24T16:14:10.383Z,88.39
2023-05-24T16:16:38.158Z,88.74
2023-05-24T16:19:04.754Z,94.46
2023-05-24T16:21:32.768Z,97.75
2023-05-24T16:24:01.918Z,100.00
2023-05-24T16:26:30.712Z,100.00
2023-05-24T16:28:57.435Z,98.24
2023-05-24T16:31:24.089Z,98.95
2023-05-24T16:33:50.779Z,100.00
2023-05-24T16:36:17.435Z,100.00
2023-05-24T16:38:43.915Z,100.00
2023-05-24T16:41:11.157Z,100.00
2023-05-24T16:43:37.681Z,100.00
2023-05-24T16:46:04.244Z,100.00
2023-05-24T16:48:31.640Z,100.00
2023-05-24T16:50:58.700Z,100.00
2023-05-24T16:53:26.789Z,100.00
2023-05-24T16:55:54.737Z,100.00
2023-05-24T16:58:22.309Z,100.00
2023-05-24T17:00:49.133Z,100.00
2023-05-24T17:03:15.938Z,100.00
2023-05-24T17:05:43.446Z,100.00
2023-05-24T17:08:10.073Z,100.00
2023-05-24T17:10:36.590Z,100.00
2023-05-24T17:13:03.860Z,100.00
2023-05-24T17:15:30.452Z,100.00
2023-05-24T17:17:57.176Z,100.00
2023-05-24T17:20:23.748Z,100.00
2023-05-24T17:22:50.441Z,100.00
2023-05-24T17:25:17.002Z,100.00
2023-05-24T17:27:43.462Z,100.00
2023-05-24T17:30:10.240Z,100.00
2023-05-24T17:32:36.888Z,100.00
2023-05-24T17:35:03.947Z,100.00
2023-05-24T17:37:30.444Z,100.00
2023-05-24T17:39:57.079Z,100.00
2023-05-24T17:42:24.792Z,100.00
2023-05-24T17:44:51.358Z,100.00
2023-05-24T17:47:18.150Z,100.00
2023-05-24T17:49:44.638Z,100.00
2023-05-24T17:52:13.983Z,100.00
2023-05-24T17:54:40.727Z,100.00
2023-05-24T17:57:07.815Z,100.00
2023-05-24T17:59:34.257Z,100.00
2023-05-24T18:02:00.725Z,100.00
2023-05-24T18:04:27.217Z,100.00
2023-05-24T18:06:54.479Z,100.00
2023-05-24T18:09:21.452Z,100.00
2023-05-24T18:11:48.143Z,100.00
2023-05-24T18:14:14.781Z,100.00
2023-05-24T18:16:41.462Z,100.00
2023-05-24T18:19:07.995Z,100.00
2023-05-24T18:21:34.470Z,100.00
2023-05-24T18:24:00.900Z,100.00
2023-05-24T18:26:27.504Z,100.00
2023-05-24T18:28:54.500Z,100.00
2023-05-24T18:31:21.886Z,100.00
2023-05-24T18:33:48.638Z,100.00
2023-05-24T18:36:15.153Z,100.00
2023-05-24T18:38:41.634Z,100.00
2023-05-24T18:41:11.963Z,100.00
2023-05-24T18:43:38.773Z,100.00
2023-05-24T18:46:05.333Z,100.00
2023-05-24T18:48:31.770Z,100.00
2023-05-24T18:50:58.293Z,100.00
2023-05-24T18:53:25.706Z,100.00
2023-05-24T18:55:52.253Z,100.00
2023-05-24T18:58:18.788Z,100.00
2023-05-24T19:00:45.330Z,100.00
2023-05-24T19:03:13.135Z,100.00
2023-05-24T19:05:42.595Z,100.00
2023-05-24T19:08:10.444Z,100.00
2023-05-24T19:10:36.924Z,100.00
2023-05-24T19:13:03.462Z,100.00
2023-05-24T19:15:29.966Z,100.00
2023-05-24T19:17:57.853Z,100.00
2023-05-24T19:20:24.793Z,100.00
2023-05-24T19:22:51.317Z,100.00
2023-05-24T19:25:17.765Z,100.00
2023-05-24T19:27:57.845Z,100.00
2023-05-24T19:30:25.452Z,100.00
2023-05-24T19:32:51.973Z,100.00
2023-05-24T19:35:18.544Z,100.00
2023-05-24T19:37:45.022Z,100.00
2023-05-24T19:40:11.776Z,100.00
2023-05-24T19:42:38.239Z,100.00
2023-05-24T19:45:05.348Z,100.00
2023-05-24T19:47:31.834Z,100.00
2023-05-24T19:49:58.415Z,100.00
2023-05-24T19:52:24.915Z,100.00
2023-05-24T19:54:51.390Z,100.00
2023-05-24T19:57:17.803Z,100.00
2023-05-24T19:59:44.285Z,100.00
2023-05-24T20:02:10.759Z,100.00
2023-05-24T20:04:41.651Z,100.00
2023-05-24T20:07:11.487Z,100.00
2023-05-24T20:09:38.217Z,100.00
2023-05-24T20:12:04.815Z,100.00
2023-05-24T20:14:31.675Z,100.00
2023-05-24T20:16:59.120Z,100.00
2023-05-24T20:19:27.133Z,100.00
2023-05-24T20:21:53.790Z,100.00
2023-05-24T20:24:20.194Z,100.00
2023-05-24T20:26:46.701Z,100.00
2023-05-24T20:29:13.174Z,100.00
2023-05-24T20:31:39.731Z,100.00
2023-05-24T20:34:06.192Z,100.00
2023-05-24T20:36:33.243Z,100.00
2023-05-24T20:38:59.796Z,100.00
2023-05-24T20:41:26.557Z,100.00
2023-05-24T20:43:53.137Z,100.00
2023-05-24T20:46:19.683Z,100.00
2023-05-24T20:48:46.557Z,100.00
2023-05-24T20:51:13.015Z,100.00
2023-05-24T20:53:40.194Z,100.00
2023-05-24T20:56:06.955Z,100.00
2023-05-24T20:58:33.471Z,100.00
2023-05-24T21:01:00.094Z,100.00
2023-05-24T21:03:26.888Z,100.00
2023-05-24T21:05:53.484Z,100.00
2023-05-24T21:08:19.992Z,100.00
2023-05-24T21:10:46.460Z,100.00
2023-05-24T21:13:12.881Z,100.00
2023-05-24T21:15:39.347Z,100.00
2023-05-24T21:18:05.973Z,100.00
2023-05-24T21:20:32.971Z,100.00
2023-05-24T21:23:00.528Z,100.00
2023-05-24T21:25:27.026Z,100.00
2023-05-24T21:27:53.448Z,100.00
2023-05-24T21:30:19.886Z,100.00
2023-05-24T21:32:46.645Z,100.00
2023-05-24T21:35:13.572Z,100.00
2023-05-24T21:37:40.054Z,100.00
2023-05-24T21:40:07.045Z,100.00
2023-05-24T21:42:33.509Z,100.00
2023-05-24T21:45:00.020Z,100.00
2023-05-24T21:47:26.777Z,100.00
2023-05-24T21:49:54.835Z,100.00
2023-05-24T21:52:21.577Z,100.00
2023-05-24T21:54:48.091Z,100.00
2023-05-24T21:57:14.882Z,100.00
2023-05-24T21:59:44.373Z,100.00
2023-05-24T22:02:10.982Z,100.00
2023-05-24T22:04:37.482Z,100.00
2023-05-24T22:07:04.135Z,100.00
2023-05-24T22:09:30.597Z,100.00
2023-05-24T22:11:57.427Z,100.00
2023-05-24T22:14:26.963Z,100.00
2023-05-24T22:17:04.622Z,100.00
2023-05-24T22:19:41.226Z,100.00
2023-05-24T22:22:15.096Z,100.00
2023-05-24T22:24:41.958Z,100.00
2023-05-24T22:27:13.848Z,100.00
2023-05-24T22:29:40.441Z,100.00
2023-05-24T22:32:07.216Z,100.00
2023-05-24T22:34:35.954Z,100.00
2023-05-24T22:37:02.444Z,100.00
2023-05-24T22:39:32.359Z,100.00
2023-05-24T22:42:02.377Z,100.00
2023-05-24T22:44:28.834Z,100.00
2023-05-24T22:46:58.833Z,100.00
2023-05-24T22:49:31.685Z,100.00
2023-05-24T22:51:58.717Z,100.00
2023-05-24T22:54:25.210Z,100.00
2023-05-24T22:56:51.703Z,100.00
2023-05-24T22:59:18.213Z,100.00
2023-05-24T23:01:44.924Z,100.00
2023-05-24T23:04:21.372Z,100.00
2023-05-24T23:06:55.057Z,100.00
2023-05-24T23:09:34.523Z,100.00
2023-05-24T23:12:07.186Z,100.00
2023-05-24T23:14:38.283Z,100.00
2023-05-24T23:17:14.922Z,100.00
2023-05-24T23:19:42.617Z,100.00
2023-05-24T23:22:11.778Z,100.00
2023-05-24T23:24:39.537Z,100.00
2023-05-24T23:27:06.455Z,100.00
2023-05-24T23:29:33.354Z,100.00
2023-05-24T23:32:00.415Z,100.00
2023-05-24T23:34:27.290Z,100.00
2023-05-24T23:36:53.739Z,100.00
2023-05-24T23:39:20.523Z,100.00
2023-05-24T23:41:49.044Z,100.00
2023-05-24T23:44:15.970Z,100.00
2023-05-24T23:46:44.654Z,100.00
2023-05-24T23:49:11.207Z,100.00
2023-05-24T23:51:37.658Z,100.00
2023-05-24T23:54:04.113Z,100.00
2023-05-24T23:56:30.597Z,100.00
2023-05-24T23:58:57.187Z,100.00
